sensor_id;sensor_type;location;lat;lon;timestamp;P1;durP1;ratioP1;P2;durP2;ratioP2
57663;SDS011;43493;53.098;6.064;2022-12-18T00:01:56;74.43;;;39.30;;
57663;SDS011;43493;53.098;6.064;2022-12-18T00:04:24;71.05;;;38.70;;
57663;SDS011;43493;53.098;6.064;2022-12-18T00:06:51;70.75;;;38.13;;
57663;SDS011;43493;53.098;6.064;2022-12-18T00:09:17;73.18;;;39.03;;
57663;SDS011;43493;53.098;6.064;2022-12-18T00:11:44;72.80;;;38.22;;
57663;SDS011;43493;53.098;6.064;2022-12-18T00:14:10;70.00;;;38.50;;
57663;SDS011;43493;53.098;6.064;2022-12-18T00:16:37;74.70;;;37.92;;
57663;SDS011;43493;53.098;6.064;2022-12-18T00:19:04;75.32;;;39.72;;
57663;SDS011;43493;53.098;6.064;2022-12-18T00:21:30;76.50;;;40.42;;
57663;SDS011;43493;53.098;6.064;2022-12-18T00:23:57;71.68;;;37.70;;
57663;SDS011;43493;53.098;6.064;2022-12-18T00:26:25;78.75;;;39.92;;
57663;SDS011;43493;53.098;6.064;2022-12-18T00:28:53;79.07;;;39.80;;
57663;SDS011;43493;53.098;6.064;2022-12-18T00:31:21;74.97;;;39.08;;
57663;SDS011;43493;53.098;6.064;2022-12-18T00:33:48;83.43;;;39.00;;
57663;SDS011;43493;53.098;6.064;2022-12-18T00:36:18;78.50;;;37.47;;
57663;SDS011;43493;53.098;6.064;2022-12-18T00:38:46;76.03;;;38.20;;
57663;SDS011;43493;53.098;6.064;2022-12-18T00:41:13;71.88;;;38.75;;
57663;SDS011;43493;53.098;6.064;2022-12-18T00:44:00;77.82;;;39.25;;
57663;SDS011;43493;53.098;6.064;2022-12-18T00:46:27;77.45;;;37.95;;
57663;SDS011;43493;53.098;6.064;2022-12-18T00:48:52;79.70;;;39.47;;
57663;SDS011;43493;53.098;6.064;2022-12-18T00:51:18;75.20;;;37.80;;
57663;SDS011;43493;53.098;6.064;2022-12-18T00:53:44;69.00;;;36.00;;
57663;SDS011;43493;53.098;6.064;2022-12-18T00:56:09;75.20;;;38.60;;
57663;SDS011;43493;53.098;6.064;2022-12-18T00:58:35;73.17;;;38.40;;
57663;SDS011;43493;53.098;6.064;2022-12-18T01:01:00;76.73;;;37.20;;
57663;SDS011;43493;53.098;6.064;2022-12-18T01:03:28;79.07;;;37.15;;
57663;SDS011;43493;53.098;6.064;2022-12-18T01:05:54;77.20;;;36.93;;
57663;SDS011;43493;53.098;6.064;2022-12-18T01:08:19;74.63;;;35.93;;
57663;SDS011;43493;53.098;6.064;2022-12-18T01:10:45;75.70;;;37.40;;
57663;SDS011;43493;53.098;6.064;2022-12-18T01:13:11;70.40;;;35.63;;
57663;SDS011;43493;53.098;6.064;2022-12-18T01:15:37;74.83;;;37.63;;
57663;SDS011;43493;53.098;6.064;2022-12-18T01:18:02;73.70;;;36.10;;
57663;SDS011;43493;53.098;6.064;2022-12-18T01:20:28;71.60;;;35.63;;
57663;SDS011;43493;53.098;6.064;2022-12-18T01:22:54;68.13;;;35.20;;
57663;SDS011;43493;53.098;6.064;2022-12-18T01:25:19;77.93;;;37.13;;
57663;SDS011;43493;53.098;6.064;2022-12-18T01:27:45;72.43;;;36.83;;
57663;SDS011;43493;53.098;6.064;2022-12-18T01:30:11;71.10;;;34.87;;
57663;SDS011;43493;53.098;6.064;2022-12-18T01:32:37;69.32;;;34.67;;
57663;SDS011;43493;53.098;6.064;2022-12-18T01:35:02;72.33;;;34.57;;
57663;SDS011;43493;53.098;6.064;2022-12-18T01:37:29;69.82;;;34.67;;
57663;SDS011;43493;53.098;6.064;2022-12-18T01:39:54;72.53;;;34.13;;
57663;SDS011;43493;53.098;6.064;2022-12-18T01:42:20;64.60;;;31.13;;
57663;SDS011;43493;53.098;6.064;2022-12-18T01:47:14;66.97;;;34.03;;
57663;SDS011;43493;53.098;6.064;2022-12-18T01:49:53;64.78;;;32.47;;
57663;SDS011;43493;53.098;6.064;2022-12-18T01:52:19;67.50;;;31.88;;
57663;SDS011;43493;53.098;6.064;2022-12-18T01:54:46;65.45;;;33.42;;
57663;SDS011;43493;53.098;6.064;2022-12-18T01:57:15;65.63;;;34.05;;
57663;SDS011;43493;53.098;6.064;2022-12-18T01:59:41;63.60;;;31.33;;
57663;SDS011;43493;53.098;6.064;2022-12-18T02:02:09;65.18;;;34.85;;
57663;SDS011;43493;53.098;6.064;2022-12-18T02:04:36;67.32;;;33.22;;
57663;SDS011;43493;53.098;6.064;2022-12-18T02:21:08;64.13;;;32.20;;
57663;SDS011;43493;53.098;6.064;2022-12-18T02:26:37;66.72;;;33.45;;
57663;SDS011;43493;53.098;6.064;2022-12-18T02:29:13;64.70;;;32.85;;
57663;SDS011;43493;53.098;6.064;2022-12-18T02:31:44;66.53;;;32.97;;
57663;SDS011;43493;53.098;6.064;2022-12-18T02:34:14;62.63;;;32.20;;
57663;SDS011;43493;53.098;6.064;2022-12-18T02:36:41;64.47;;;32.80;;
57663;SDS011;43493;53.098;6.064;2022-12-18T02:39:10;64.40;;;32.90;;
57663;SDS011;43493;53.098;6.064;2022-12-18T02:41:38;60.67;;;31.92;;
57663;SDS011;43493;53.098;6.064;2022-12-18T02:44:09;61.15;;;32.08;;
57663;SDS011;43493;53.098;6.064;2022-12-18T02:46:37;58.40;;;32.22;;
57663;SDS011;43493;53.098;6.064;2022-12-18T02:49:20;61.75;;;32.67;;
57663;SDS011;43493;53.098;6.064;2022-12-18T03:00:06;63.88;;;33.38;;
57663;SDS011;43493;53.098;6.064;2022-12-18T03:03:04;65.88;;;31.60;;
57663;SDS011;43493;53.098;6.064;2022-12-18T03:05:44;65.40;;;31.95;;
57663;SDS011;43493;53.098;6.064;2022-12-18T03:08:16;63.53;;;31.30;;
57663;SDS011;43493;53.098;6.064;2022-12-18T03:10:47;63.33;;;32.47;;
57663;SDS011;43493;53.098;6.064;2022-12-18T03:13:30;64.78;;;33.10;;
57663;SDS011;43493;53.098;6.064;2022-12-18T03:15:57;62.00;;;31.83;;
57663;SDS011;43493;53.098;6.064;2022-12-18T03:18:26;67.53;;;35.03;;
57663;SDS011;43493;53.098;6.064;2022-12-18T03:20:58;60.40;;;32.83;;
57663;SDS011;43493;53.098;6.064;2022-12-18T03:23:29;67.22;;;33.03;;
57663;SDS011;43493;53.098;6.064;2022-12-18T03:26:01;66.70;;;33.10;;
57663;SDS011;43493;53.098;6.064;2022-12-18T03:28:33;61.70;;;32.25;;
57663;SDS011;43493;53.098;6.064;2022-12-18T03:31:03;64.47;;;33.63;;
57663;SDS011;43493;53.098;6.064;2022-12-18T03:33:34;64.05;;;32.85;;
57663;SDS011;43493;53.098;6.064;2022-12-18T03:36:05;69.97;;;34.88;;
57663;SDS011;43493;53.098;6.064;2022-12-18T03:38:32;68.78;;;34.97;;
57663;SDS011;43493;53.098;6.064;2022-12-18T03:46:22;65.80;;;35.25;;
57663;SDS011;43493;53.098;6.064;2022-12-18T03:48:52;64.75;;;33.35;;
57663;SDS011;43493;53.098;6.064;2022-12-18T03:51:28;67.00;;;34.15;;
57663;SDS011;43493;53.098;6.064;2022-12-18T03:54:02;69.15;;;33.28;;
57663;SDS011;43493;53.098;6.064;2022-12-18T03:56:31;71.32;;;35.58;;
57663;SDS011;43493;53.098;6.064;2022-12-18T03:59:00;67.90;;;35.47;;
57663;SDS011;43493;53.098;6.064;2022-12-18T04:01:30;74.05;;;35.67;;
57663;SDS011;43493;53.098;6.064;2022-12-18T04:03:59;69.95;;;35.03;;
57663;SDS011;43493;53.098;6.064;2022-12-18T04:06:28;65.43;;;33.80;;
57663;SDS011;43493;53.098;6.064;2022-12-18T04:08:54;69.68;;;35.53;;
57663;SDS011;43493;53.098;6.064;2022-12-18T04:11:22;69.65;;;34.42;;
57663;SDS011;43493;53.098;6.064;2022-12-18T04:13:48;73.57;;;35.37;;
57663;SDS011;43493;53.098;6.064;2022-12-18T04:16:13;66.23;;;33.87;;
57663;SDS011;43493;53.098;6.064;2022-12-18T04:18:39;63.83;;;33.10;;
57663;SDS011;43493;53.098;6.064;2022-12-18T04:21:05;69.67;;;34.33;;
57663;SDS011;43493;53.098;6.064;2022-12-18T04:23:30;64.43;;;32.73;;
57663;SDS011;43493;53.098;6.064;2022-12-18T04:25:56;68.37;;;33.27;;
57663;SDS011;43493;53.098;6.064;2022-12-18T04:28:22;64.70;;;33.10;;
57663;SDS011;43493;53.098;6.064;2022-12-18T04:30:48;62.10;;;33.37;;
57663;SDS011;43493;53.098;6.064;2022-12-18T04:33:13;59.07;;;30.07;;
57663;SDS011;43493;53.098;6.064;2022-12-18T04:35:43;60.40;;;31.30;;
57663;SDS011;43493;53.098;6.064;2022-12-18T04:38:09;68.10;;;33.30;;
57663;SDS011;43493;53.098;6.064;2022-12-18T04:40:35;58.75;;;31.63;;
57663;SDS011;43493;53.098;6.064;2022-12-18T04:43:02;58.70;;;31.08;;
57663;SDS011;43493;53.098;6.064;2022-12-18T04:45:29;57.78;;;28.60;;
57663;SDS011;43493;53.098;6.064;2022-12-18T04:47:57;59.88;;;31.08;;
57663;SDS011;43493;53.098;6.064;2022-12-18T04:50:23;58.78;;;29.48;;
57663;SDS011;43493;53.098;6.064;2022-12-18T04:52:49;64.53;;;33.17;;
57663;SDS011;43493;53.098;6.064;2022-12-18T04:55:14;57.10;;;29.07;;
57663;SDS011;43493;53.098;6.064;2022-12-18T04:57:40;57.63;;;31.07;;
57663;SDS011;43493;53.098;6.064;2022-12-18T05:00:06;60.37;;;31.07;;
57663;SDS011;43493;53.098;6.064;2022-12-18T05:02:32;55.47;;;30.00;;
57663;SDS011;43493;53.098;6.064;2022-12-18T05:04:58;60.47;;;30.00;;
57663;SDS011;43493;53.098;6.064;2022-12-18T05:07:24;56.27;;;29.00;;
57663;SDS011;43493;53.098;6.064;2022-12-18T05:09:50;59.43;;;30.70;;
57663;SDS011;43493;53.098;6.064;2022-12-18T05:12:15;59.90;;;31.87;;
57663;SDS011;43493;53.098;6.064;2022-12-18T05:14:41;63.23;;;31.73;;
57663;SDS011;43493;53.098;6.064;2022-12-18T05:17:07;57.43;;;29.03;;
57663;SDS011;43493;53.098;6.064;2022-12-18T05:19:32;57.00;;;30.83;;
57663;SDS011;43493;53.098;6.064;2022-12-18T05:21:58;58.57;;;29.67;;
57663;SDS011;43493;53.098;6.064;2022-12-18T05:24:24;54.67;;;27.87;;
57663;SDS011;43493;53.098;6.064;2022-12-18T05:26:50;54.87;;;27.40;;
57663;SDS011;43493;53.098;6.064;2022-12-18T05:29:15;57.40;;;28.17;;
57663;SDS011;43493;53.098;6.064;2022-12-18T05:31:41;55.73;;;27.63;;
57663;SDS011;43493;53.098;6.064;2022-12-18T05:34:07;52.67;;;27.73;;
57663;SDS011;43493;53.098;6.064;2022-12-18T05:36:32;47.80;;;26.57;;
57663;SDS011;43493;53.098;6.064;2022-12-18T05:38:58;47.97;;;25.40;;
57663;SDS011;43493;53.098;6.064;2022-12-18T05:41:25;51.17;;;25.50;;
57663;SDS011;43493;53.098;6.064;2022-12-18T05:43:51;48.85;;;25.17;;
57663;SDS011;43493;53.098;6.064;2022-12-18T05:46:17;46.37;;;24.73;;
57663;SDS011;43493;53.098;6.064;2022-12-18T05:48:43;50.28;;;25.80;;
57663;SDS011;43493;53.098;6.064;2022-12-18T05:51:14;47.30;;;24.33;;
57663;SDS011;43493;53.098;6.064;2022-12-18T05:53:41;47.33;;;25.08;;
57663;SDS011;43493;53.098;6.064;2022-12-18T05:56:08;50.60;;;25.35;;
57663;SDS011;43493;53.098;6.064;2022-12-18T05:58:36;45.95;;;23.65;;
57663;SDS011;43493;53.098;6.064;2022-12-18T06:01:09;47.67;;;24.88;;
57663;SDS011;43493;53.098;6.064;2022-12-18T06:03:37;43.30;;;24.25;;
57663;SDS011;43493;53.098;6.064;2022-12-18T06:06:02;47.37;;;22.93;;
57663;SDS011;43493;53.098;6.064;2022-12-18T06:08:29;43.90;;;23.15;;
57663;SDS011;43493;53.098;6.064;2022-12-18T06:10:54;44.17;;;22.13;;
57663;SDS011;43493;53.098;6.064;2022-12-18T06:13:20;46.07;;;23.27;;
57663;SDS011;43493;53.098;6.064;2022-12-18T06:15:46;49.57;;;23.57;;
57663;SDS011;43493;53.098;6.064;2022-12-18T06:18:12;44.97;;;24.15;;
57663;SDS011;43493;53.098;6.064;2022-12-18T06:20:38;42.60;;;22.63;;
57663;SDS011;43493;53.098;6.064;2022-12-18T06:23:06;44.00;;;22.58;;
57663;SDS011;43493;53.098;6.064;2022-12-18T06:25:32;46.80;;;22.90;;
57663;SDS011;43493;53.098;6.064;2022-12-18T06:27:58;44.23;;;23.73;;
57663;SDS011;43493;53.098;6.064;2022-12-18T06:30:24;41.03;;;22.90;;
57663;SDS011;43493;53.098;6.064;2022-12-18T06:32:50;44.50;;;22.48;;
57663;SDS011;43493;53.098;6.064;2022-12-18T06:35:16;42.38;;;21.23;;
57663;SDS011;43493;53.098;6.064;2022-12-18T06:37:42;39.70;;;20.73;;
57663;SDS011;43493;53.098;6.064;2022-12-18T06:40:07;44.30;;;22.10;;
57663;SDS011;43493;53.098;6.064;2022-12-18T06:42:33;43.38;;;21.48;;
57663;SDS011;43493;53.098;6.064;2022-12-18T06:44:59;41.10;;;21.23;;
57663;SDS011;43493;53.098;6.064;2022-12-18T06:47:25;44.93;;;21.67;;
57663;SDS011;43493;53.098;6.064;2022-12-18T06:49:50;38.10;;;20.60;;
57663;SDS011;43493;53.098;6.064;2022-12-18T06:52:16;43.03;;;21.60;;
57663;SDS011;43493;53.098;6.064;2022-12-18T06:54:42;35.77;;;19.43;;
57663;SDS011;43493;53.098;6.064;2022-12-18T06:57:07;36.83;;;18.67;;
57663;SDS011;43493;53.098;6.064;2022-12-18T06:59:33;39.70;;;20.50;;
57663;SDS011;43493;53.098;6.064;2022-12-18T07:01:58;40.80;;;21.70;;
57663;SDS011;43493;53.098;6.064;2022-12-18T07:04:30;38.53;;;19.77;;
57663;SDS011;43493;53.098;6.064;2022-12-18T07:06:56;41.42;;;20.88;;
57663;SDS011;43493;53.098;6.064;2022-12-18T07:09:23;42.13;;;20.83;;
57663;SDS011;43493;53.098;6.064;2022-12-18T07:11:49;38.15;;;20.48;;
57663;SDS011;43493;53.098;6.064;2022-12-18T07:14:14;42.23;;;21.83;;
57663;SDS011;43493;53.098;6.064;2022-12-18T07:16:40;34.93;;;19.90;;
57663;SDS011;43493;53.098;6.064;2022-12-18T07:19:06;38.90;;;18.17;;
57663;SDS011;43493;53.098;6.064;2022-12-18T07:21:31;38.47;;;19.83;;
57663;SDS011;43493;53.098;6.064;2022-12-18T07:23:57;41.47;;;19.70;;
57663;SDS011;43493;53.098;6.064;2022-12-18T07:26:23;35.97;;;19.70;;
57663;SDS011;43493;53.098;6.064;2022-12-18T07:28:49;37.50;;;19.47;;
57663;SDS011;43493;53.098;6.064;2022-12-18T07:31:19;38.10;;;21.02;;
57663;SDS011;43493;53.098;6.064;2022-12-18T07:33:46;39.22;;;19.77;;
57663;SDS011;43493;53.098;6.064;2022-12-18T07:36:13;41.22;;;21.63;;
57663;SDS011;43493;53.098;6.064;2022-12-18T07:38:39;40.03;;;19.90;;
57663;SDS011;43493;53.098;6.064;2022-12-18T07:41:09;43.20;;;19.92;;
57663;SDS011;43493;53.098;6.064;2022-12-18T07:43:36;36.35;;;19.23;;
57663;SDS011;43493;53.098;6.064;2022-12-18T07:46:03;39.58;;;19.90;;
57663;SDS011;43493;53.098;6.064;2022-12-18T07:48:29;39.17;;;20.00;;
57663;SDS011;43493;53.098;6.064;2022-12-18T07:50:59;35.75;;;20.08;;
57663;SDS011;43493;53.098;6.064;2022-12-18T07:53:29;37.20;;;19.35;;
57663;SDS011;43493;53.098;6.064;2022-12-18T07:55:58;37.05;;;18.38;;
57663;SDS011;43493;53.098;6.064;2022-12-18T07:58:27;35.80;;;17.08;;
57663;SDS011;43493;53.098;6.064;2022-12-18T08:00:53;33.72;;;18.17;;
57663;SDS011;43493;53.098;6.064;2022-12-18T08:03:18;34.23;;;18.97;;
57663;SDS011;43493;53.098;6.064;2022-12-18T08:05:45;34.75;;;17.35;;
57663;SDS011;43493;53.098;6.064;2022-12-18T08:08:14;33.03;;;18.02;;
57663;SDS011;43493;53.098;6.064;2022-12-18T08:10:39;33.90;;;18.13;;
57663;SDS011;43493;53.098;6.064;2022-12-18T08:13:05;32.50;;;17.23;;
57663;SDS011;43493;53.098;6.064;2022-12-18T08:15:31;34.60;;;17.93;;
57663;SDS011;43493;53.098;6.064;2022-12-18T08:17:57;31.70;;;17.43;;
57663;SDS011;43493;53.098;6.064;2022-12-18T08:20:22;35.10;;;18.27;;
57663;SDS011;43493;53.098;6.064;2022-12-18T08:22:48;36.70;;;19.90;;
57663;SDS011;43493;53.098;6.064;2022-12-18T08:25:14;36.63;;;19.10;;
57663;SDS011;43493;53.098;6.064;2022-12-18T08:27:39;31.87;;;17.50;;
57663;SDS011;43493;53.098;6.064;2022-12-18T08:30:05;31.87;;;17.80;;
57663;SDS011;43493;53.098;6.064;2022-12-18T08:32:31;30.55;;;16.42;;
57663;SDS011;43493;53.098;6.064;2022-12-18T08:34:58;33.85;;;17.67;;
57663;SDS011;43493;53.098;6.064;2022-12-18T08:37:24;32.35;;;17.35;;
57663;SDS011;43493;53.098;6.064;2022-12-18T08:39:50;33.60;;;17.53;;
57663;SDS011;43493;53.098;6.064;2022-12-18T08:42:15;31.47;;;16.53;;
57663;SDS011;43493;53.098;6.064;2022-12-18T08:45:00;29.10;;;15.77;;
57663;SDS011;43493;53.098;6.064;2022-12-18T08:47:26;28.23;;;15.07;;
57663;SDS011;43493;53.098;6.064;2022-12-18T08:49:52;30.77;;;17.33;;
57663;SDS011;43493;53.098;6.064;2022-12-18T08:52:18;29.50;;;16.33;;
57663;SDS011;43493;53.098;6.064;2022-12-18T08:54:49;33.58;;;17.85;;
57663;SDS011;43493;53.098;6.064;2022-12-18T08:57:15;31.20;;;15.20;;
57663;SDS011;43493;53.098;6.064;2022-12-18T08:59:41;30.33;;;16.60;;
57663;SDS011;43493;53.098;6.064;2022-12-18T09:02:08;29.13;;;15.63;;
57663;SDS011;43493;53.098;6.064;2022-12-18T09:04:35;26.05;;;15.70;;
57663;SDS011;43493;53.098;6.064;2022-12-18T09:07:01;27.87;;;14.83;;
57663;SDS011;43493;53.098;6.064;2022-12-18T09:09:26;25.17;;;13.50;;
57663;SDS011;43493;53.098;6.064;2022-12-18T09:11:52;25.47;;;13.80;;
57663;SDS011;43493;53.098;6.064;2022-12-18T09:14:18;26.77;;;13.73;;
57663;SDS011;43493;53.098;6.064;2022-12-18T09:16:43;27.57;;;14.57;;
57663;SDS011;43493;53.098;6.064;2022-12-18T09:19:09;22.97;;;12.73;;
57663;SDS011;43493;53.098;6.064;2022-12-18T09:21:35;25.57;;;14.47;;
57663;SDS011;43493;53.098;6.064;2022-12-18T09:24:00;22.07;;;13.53;;
57663;SDS011;43493;53.098;6.064;2022-12-18T09:26:26;25.90;;;15.67;;
57663;SDS011;43493;53.098;6.064;2022-12-18T09:28:52;24.25;;;14.30;;
57663;SDS011;43493;53.098;6.064;2022-12-18T09:31:20;24.73;;;14.45;;
57663;SDS011;43493;53.098;6.064;2022-12-18T09:33:47;25.15;;;13.45;;
57663;SDS011;43493;53.098;6.064;2022-12-18T09:36:14;24.10;;;13.07;;
57663;SDS011;43493;53.098;6.064;2022-12-18T09:38:41;25.25;;;13.00;;
57663;SDS011;43493;53.098;6.064;2022-12-18T09:43:58;23.27;;;13.30;;
57663;SDS011;43493;53.098;6.064;2022-12-18T09:46:32;24.48;;;13.88;;
57663;SDS011;43493;53.098;6.064;2022-12-18T09:49:01;20.70;;;13.45;;
57663;SDS011;43493;53.098;6.064;2022-12-18T09:51:32;24.60;;;13.10;;
57663;SDS011;43493;53.098;6.064;2022-12-18T09:57:03;22.13;;;13.13;;
57663;SDS011;43493;53.098;6.064;2022-12-18T09:59:31;21.13;;;12.48;;
57663;SDS011;43493;53.098;6.064;2022-12-18T10:02:14;18.98;;;12.02;;
57663;SDS011;43493;53.098;6.064;2022-12-18T10:13:26;21.58;;;13.77;;
57663;SDS011;43493;53.098;6.064;2022-12-18T10:21:30;18.10;;;11.35;;
57663;SDS011;43493;53.098;6.064;2022-12-18T10:26:51;18.05;;;10.50;;
57663;SDS011;43493;53.098;6.064;2022-12-18T10:29:21;18.17;;;11.07;;
57663;SDS011;43493;53.098;6.064;2022-12-18T10:31:47;24.10;;;14.05;;
57663;SDS011;43493;53.098;6.064;2022-12-18T10:34:13;21.67;;;12.23;;
57663;SDS011;43493;53.098;6.064;2022-12-18T10:36:39;19.05;;;11.38;;
57663;SDS011;43493;53.098;6.064;2022-12-18T10:42:09;16.98;;;10.20;;
57663;SDS011;43493;53.098;6.064;2022-12-18T10:44:40;19.67;;;12.23;;
57663;SDS011;43493;53.098;6.064;2022-12-18T10:47:09;22.43;;;12.97;;
57663;SDS011;43493;53.098;6.064;2022-12-18T10:49:42;21.65;;;13.98;;
57663;SDS011;43493;53.098;6.064;2022-12-18T10:52:21;23.17;;;14.32;;
57663;SDS011;43493;53.098;6.064;2022-12-18T10:54:50;22.42;;;13.50;;
57663;SDS011;43493;53.098;6.064;2022-12-18T10:57:37;22.70;;;12.95;;
57663;SDS011;43493;53.098;6.064;2022-12-18T11:02:45;21.63;;;12.57;;
57663;SDS011;43493;53.098;6.064;2022-12-18T11:05:24;21.87;;;12.30;;
57663;SDS011;43493;53.098;6.064;2022-12-18T11:07:54;20.33;;;12.02;;
57663;SDS011;43493;53.098;6.064;2022-12-18T11:10:21;19.20;;;11.55;;
57663;SDS011;43493;53.098;6.064;2022-12-18T11:13:10;18.90;;;11.05;;
57663;SDS011;43493;53.098;6.064;2022-12-18T11:15:41;21.02;;;12.02;;
57663;SDS011;43493;53.098;6.064;2022-12-18T11:20:49;19.38;;;11.80;;
57663;SDS011;43493;53.098;6.064;2022-12-18T11:23:18;18.67;;;11.98;;
57663;SDS011;43493;53.098;6.064;2022-12-18T11:25:59;19.30;;;10.90;;
57663;SDS011;43493;53.098;6.064;2022-12-18T11:31:26;17.92;;;10.73;;
57663;SDS011;43493;53.098;6.064;2022-12-18T11:36:42;19.23;;;11.98;;
57663;SDS011;43493;53.098;6.064;2022-12-18T11:41:52;20.08;;;10.60;;
57663;SDS011;43493;53.098;6.064;2022-12-18T11:50:14;16.38;;;10.50;;
57663;SDS011;43493;53.098;6.064;2022-12-18T11:52:43;17.08;;;11.45;;
57663;SDS011;43493;53.098;6.064;2022-12-18T11:55:14;21.65;;;11.55;;
57663;SDS011;43493;53.098;6.064;2022-12-18T11:57:47;18.55;;;11.10;;
57663;SDS011;43493;53.098;6.064;2022-12-18T12:00:24;15.77;;;10.57;;
57663;SDS011;43493;53.098;6.064;2022-12-18T12:05:36;17.30;;;10.38;;
57663;SDS011;43493;53.098;6.064;2022-12-18T12:14:17;18.73;;;10.95;;
57663;SDS011;43493;53.098;6.064;2022-12-18T12:19:24;17.57;;;9.40;;
57663;SDS011;43493;53.098;6.064;2022-12-18T12:30:18;13.00;;;8.00;;
57663;SDS011;43493;53.098;6.064;2022-12-18T12:33:09;15.30;;;9.05;;
57663;SDS011;43493;53.098;6.064;2022-12-18T12:38:41;14.07;;;7.97;;
57663;SDS011;43493;53.098;6.064;2022-12-18T12:41:16;11.15;;;6.68;;
57663;SDS011;43493;53.098;6.064;2022-12-18T12:44:05;12.43;;;6.95;;
57663;SDS011;43493;53.098;6.064;2022-12-18T12:46:36;14.43;;;6.95;;
57663;SDS011;43493;53.098;6.064;2022-12-18T12:49:07;12.02;;;8.25;;
57663;SDS011;43493;53.098;6.064;2022-12-18T12:51:39;11.68;;;6.47;;
57663;SDS011;43493;53.098;6.064;2022-12-18T12:54:15;13.52;;;6.55;;
57663;SDS011;43493;53.098;6.064;2022-12-18T12:56:48;11.75;;;6.50;;
57663;SDS011;43493;53.098;6.064;2022-12-18T12:59:32;13.07;;;7.15;;
57663;SDS011;43493;53.098;6.064;2022-12-18T13:02:22;12.77;;;6.13;;
57663;SDS011;43493;53.098;6.064;2022-12-18T13:04:57;12.65;;;6.30;;
57663;SDS011;43493;53.098;6.064;2022-12-18T13:07:41;11.57;;;6.82;;
57663;SDS011;43493;53.098;6.064;2022-12-18T13:10:24;12.30;;;6.15;;
57663;SDS011;43493;53.098;6.064;2022-12-18T13:12:56;9.35;;;5.38;;
57663;SDS011;43493;53.098;6.064;2022-12-18T13:15:31;9.73;;;5.60;;
57663;SDS011;43493;53.098;6.064;2022-12-18T13:18:20;8.63;;;5.05;;
57663;SDS011;43493;53.098;6.064;2022-12-18T13:25:54;9.55;;;5.50;;
57663;SDS011;43493;53.098;6.064;2022-12-18T13:36:44;11.20;;;4.72;;
57663;SDS011;43493;53.098;6.064;2022-12-18T13:41:39;10.02;;;6.05;;
57663;SDS011;43493;53.098;6.064;2022-12-18T13:46:47;22.02;;;12.70;;
57663;SDS011;43493;53.098;6.064;2022-12-18T13:52:14;30.83;;;16.95;;
57663;SDS011;43493;53.098;6.064;2022-12-18T13:54:43;35.95;;;18.92;;
57663;SDS011;43493;53.098;6.064;2022-12-18T13:57:29;19.95;;;11.10;;
57663;SDS011;43493;53.098;6.064;2022-12-18T13:59:57;33.65;;;19.10;;
57663;SDS011;43493;53.098;6.064;2022-12-18T14:02:37;40.40;;;21.83;;
57663;SDS011;43493;53.098;6.064;2022-12-18T14:05:03;24.42;;;13.50;;
57663;SDS011;43493;53.098;6.064;2022-12-18T14:07:29;38.53;;;20.83;;
57663;SDS011;43493;53.098;6.064;2022-12-18T14:09:57;28.08;;;14.68;;
57663;SDS011;43493;53.098;6.064;2022-12-18T14:12:29;50.67;;;25.35;;
57663;SDS011;43493;53.098;6.064;2022-12-18T14:15:31;16.85;;;9.18;;
57663;SDS011;43493;53.098;6.064;2022-12-18T14:20:46;19.17;;;9.75;;
57663;SDS011;43493;53.098;6.064;2022-12-18T14:25:50;33.55;;;15.32;;
57663;SDS011;43493;53.098;6.064;2022-12-18T14:28:16;38.87;;;15.77;;
57663;SDS011;43493;53.098;6.064;2022-12-18T14:30:43;40.33;;;16.40;;
57663;SDS011;43493;53.098;6.064;2022-12-18T14:35:41;30.70;;;13.48;;
57663;SDS011;43493;53.098;6.064;2022-12-18T14:38:30;41.30;;;16.05;;
57663;SDS011;43493;53.098;6.064;2022-12-18T14:40:56;48.78;;;18.73;;
57663;SDS011;43493;53.098;6.064;2022-12-18T14:43:28;35.72;;;13.90;;
57663;SDS011;43493;53.098;6.064;2022-12-18T14:45:56;11.20;;;6.75;;
57663;SDS011;43493;53.098;6.064;2022-12-18T14:48:39;10.57;;;7.45;;
57663;SDS011;43493;53.098;6.064;2022-12-18T14:54:18;13.02;;;8.32;;
57663;SDS011;43493;53.098;6.064;2022-12-18T14:56:29;14.38;;;7.68;;
57663;SDS011;43493;53.098;6.064;2022-12-18T14:59:01;13.57;;;8.88;;
57663;SDS011;43493;53.098;6.064;2022-12-18T15:01:36;13.48;;;7.20;;
57663;SDS011;43493;53.098;6.064;2022-12-18T15:04:04;14.18;;;8.85;;
57663;SDS011;43493;53.098;6.064;2022-12-18T15:06:47;13.98;;;10.70;;
57663;SDS011;43493;53.098;6.064;2022-12-18T15:09:24;13.75;;;8.05;;
57663;SDS011;43493;53.098;6.064;2022-12-18T15:11:55;13.00;;;8.05;;
57663;SDS011;43493;53.098;6.064;2022-12-18T15:14:39;11.82;;;6.70;;
57663;SDS011;43493;53.098;6.064;2022-12-18T15:17:06;11.48;;;6.57;;
57663;SDS011;43493;53.098;6.064;2022-12-18T15:19:44;10.63;;;6.20;;
57663;SDS011;43493;53.098;6.064;2022-12-18T15:22:17;11.68;;;6.55;;
57663;SDS011;43493;53.098;6.064;2022-12-18T15:24:45;10.35;;;6.05;;
57663;SDS011;43493;53.098;6.064;2022-12-18T15:27:21;10.52;;;6.57;;
57663;SDS011;43493;53.098;6.064;2022-12-18T15:32:36;10.63;;;6.25;;
57663;SDS011;43493;53.098;6.064;2022-12-18T15:37:42;11.88;;;6.28;;
57663;SDS011;43493;53.098;6.064;2022-12-18T15:40:11;15.18;;;7.35;;
57663;SDS011;43493;53.098;6.064;2022-12-18T15:42:38;14.10;;;7.53;;
57663;SDS011;43493;53.098;6.064;2022-12-18T15:45:23;12.23;;;7.32;;
57663;SDS011;43493;53.098;6.064;2022-12-18T15:47:49;10.63;;;6.80;;
57663;SDS011;43493;53.098;6.064;2022-12-18T15:50:14;10.27;;;6.20;;
57663;SDS011;43493;53.098;6.064;2022-12-18T15:52:44;12.33;;;6.53;;
57663;SDS011;43493;53.098;6.064;2022-12-18T15:55:11;12.38;;;6.63;;
57663;SDS011;43493;53.098;6.064;2022-12-18T15:57:57;13.27;;;8.85;;
57663;SDS011;43493;53.098;6.064;2022-12-18T16:00:23;10.90;;;6.83;;
57663;SDS011;43493;53.098;6.064;2022-12-18T16:02:49;12.73;;;7.50;;
57663;SDS011;43493;53.098;6.064;2022-12-18T16:05:15;13.37;;;6.83;;
57663;SDS011;43493;53.098;6.064;2022-12-18T16:07:42;10.18;;;6.38;;
57663;SDS011;43493;53.098;6.064;2022-12-18T16:10:08;13.38;;;8.40;;
57663;SDS011;43493;53.098;6.064;2022-12-18T16:12:35;12.65;;;7.90;;
57663;SDS011;43493;53.098;6.064;2022-12-18T16:15:01;10.30;;;6.13;;
57663;SDS011;43493;53.098;6.064;2022-12-18T16:17:27;14.02;;;7.68;;
57663;SDS011;43493;53.098;6.064;2022-12-18T16:19:53;15.37;;;8.53;;
57663;SDS011;43493;53.098;6.064;2022-12-18T16:22:23;11.87;;;7.27;;
57663;SDS011;43493;53.098;6.064;2022-12-18T16:24:54;11.93;;;6.70;;
57663;SDS011;43493;53.098;6.064;2022-12-18T16:27:20;12.45;;;7.25;;
57663;SDS011;43493;53.098;6.064;2022-12-18T16:29:47;12.90;;;7.93;;
57663;SDS011;43493;53.098;6.064;2022-12-18T16:32:15;11.50;;;7.32;;
57663;SDS011;43493;53.098;6.064;2022-12-18T16:34:42;11.25;;;6.70;;
57663;SDS011;43493;53.098;6.064;2022-12-18T16:37:09;11.00;;;7.32;;
57663;SDS011;43493;53.098;6.064;2022-12-18T16:39:36;12.48;;;7.38;;
57663;SDS011;43493;53.098;6.064;2022-12-18T16:42:04;10.68;;;7.32;;
57663;SDS011;43493;53.098;6.064;2022-12-18T16:44:42;12.82;;;7.20;;
57663;SDS011;43493;53.098;6.064;2022-12-18T16:47:08;10.30;;;6.25;;
57663;SDS011;43493;53.098;6.064;2022-12-18T16:49:34;10.90;;;6.32;;
57663;SDS011;43493;53.098;6.064;2022-12-18T16:52:00;13.17;;;7.37;;
57663;SDS011;43493;53.098;6.064;2022-12-18T16:54:26;10.17;;;6.40;;